createdAt,value
2017-11-09T00:01:56.193Z,16.90
2017-11-09T00:04:30.354Z,14.10
2017-11-09T00:06:57.909Z,15.73
2017-11-09T00:09:25.495Z,14.87
2017-11-09T00:11:53.046Z,15.30
2017-11-09T00:14:20.629Z,16.97
2017-11-09T00:16:48.178Z,17.40
2017-11-09T00:19:15.765Z,17.97
2017-11-09T00:21:44.079Z,15.60
2017-11-09T00:24:11.667Z,15.98
2017-11-09T00:26:39.204Z,19.63
2017-11-09T00:29:06.781Z,22.27
2017-11-09T00:31:34.313Z,18.07
2017-11-09T00:34:01.921Z,18.77
2017-11-09T00:36:29.472Z,15.50
2017-11-09T00:38:57.053Z,15.73
2017-11-09T00:41:24.597Z,23.07
2017-11-09T00:43:52.183Z,38.28
2017-11-09T00:46:20.500Z,28.23
2017-11-09T00:48:48.086Z,21.60
2017-11-09T00:51:15.634Z,16.67
2017-11-09T00:53:43.219Z,15.63
2017-11-09T00:56:10.769Z,17.30
2017-11-09T00:58:39.128Z,17.83
2017-11-09T01:01:06.674Z,15.07
2017-11-09T01:03:34.249Z,16.33
2017-11-09T01:06:01.790Z,19.50
2017-11-09T01:08:29.377Z,23.58
2017-11-09T01:10:56.925Z,40.03
2017-11-09T01:13:24.509Z,36.72
2017-11-09T01:15:52.060Z,34.08
2017-11-09T01:18:19.642Z,28.17
2017-11-09T01:20:47.958Z,20.10
2017-11-09T01:23:15.541Z,16.75
2017-11-09T01:25:43.165Z,17.37
2017-11-09T01:28:10.788Z,16.70
2017-11-09T01:30:38.338Z,15.20
2017-11-09T01:33:05.876Z,16.30
2017-11-09T01:35:33.471Z,31.50
2017-11-09T01:38:01.222Z,59.95
2017-11-09T01:40:28.771Z,40.80
2017-11-09T01:42:56.319Z,63.00
2017-11-09T01:45:23.909Z,47.00
2017-11-09T01:47:51.456Z,42.23
2017-11-09T01:50:19.052Z,38.10
2017-11-09T01:52:47.376Z,92.93
2017-11-09T01:55:14.961Z,50.75
2017-11-09T01:57:42.519Z,21.27
2017-11-09T02:00:10.103Z,16.58
2017-11-09T02:02:37.655Z,18.98
2017-11-09T02:05:05.242Z,17.40
2017-11-09T02:07:33.556Z,19.98
2017-11-09T02:10:01.151Z,17.70
2017-11-09T02:12:28.698Z,18.25
2017-11-09T02:14:56.318Z,32.60
2017-11-09T02:17:23.872Z,36.40
2017-11-09T02:19:51.458Z,27.10
2017-11-09T02:22:19.011Z,17.73
2017-11-09T02:24:46.599Z,19.87
2017-11-09T02:27:14.147Z,21.03
2017-11-09T02:29:41.737Z,21.23
2017-11-09T02:32:09.285Z,18.35
2017-11-09T02:34:36.882Z,27.02
2017-11-09T02:37:05.200Z,62.35
2017-11-09T02:39:32.791Z,46.83
2017-11-09T02:42:00.338Z,45.78
2017-11-09T02:44:27.930Z,38.40
2017-11-09T02:46:56.248Z,47.33
2017-11-09T02:49:23.849Z,31.20
2017-11-09T02:51:51.409Z,47.28
2017-11-09T02:54:29.915Z,34.63
2017-11-09T02:56:58.247Z,16.65
2017-11-09T02:59:27.720Z,17.70
2017-11-09T03:01:55.273Z,15.67
2017-11-09T03:04:22.865Z,14.50
2017-11-09T03:06:50.417Z,16.00
2017-11-09T03:09:18.784Z,16.97
2017-11-09T03:11:47.097Z,18.10
2017-11-09T03:14:14.693Z,19.30
2017-11-09T03:16:42.254Z,29.12
2017-11-09T03:19:09.896Z,22.27
2017-11-09T03:21:37.438Z,21.90
2017-11-09T03:24:05.025Z,19.65
2017-11-09T03:26:32.583Z,48.28
2017-11-09T03:29:00.198Z,46.80
2017-11-09T03:31:28.512Z,48.63
2017-11-09T03:33:56.065Z,49.40
2017-11-09T03:36:47.766Z,40.42
2017-11-09T03:39:17.374Z,26.12
2017-11-09T03:41:44.924Z,19.92
2017-11-09T03:44:13.277Z,18.77
2017-11-09T03:46:40.907Z,15.87
2017-11-09T03:49:08.488Z,20.92
2017-11-09T03:51:36.036Z,20.45
2017-11-09T03:54:03.626Z,17.20
2017-11-09T03:56:31.169Z,15.65
2017-11-09T03:58:58.750Z,18.43
2017-11-09T04:01:26.296Z,21.65
2017-11-09T04:03:53.888Z,31.83
2017-11-09T04:06:22.197Z,35.08
2017-11-09T04:08:49.786Z,29.63
2017-11-09T04:11:17.329Z,24.27
2017-11-09T04:13:44.928Z,21.42
2017-11-09T04:16:13.262Z,18.80
2017-11-09T04:18:40.850Z,23.38
2017-11-09T04:21:08.397Z,32.67
2017-11-09T04:23:36.000Z,52.03
2017-11-09T04:26:04.318Z,44.92
2017-11-09T04:28:31.901Z,34.88
2017-11-09T04:30:59.442Z,36.00
2017-11-09T04:33:27.057Z,28.67
2017-11-09T04:35:55.370Z,28.90
2017-11-09T04:38:22.921Z,25.62
2017-11-09T04:40:50.505Z,21.87
2017-11-09T04:43:18.050Z,18.55
2017-11-09T04:45:45.649Z,17.08
2017-11-09T04:48:13.199Z,19.23
2017-11-09T04:50:40.790Z,16.95
2017-11-09T04:53:09.102Z,18.23
2017-11-09T04:55:36.692Z,17.02
2017-11-09T04:58:04.244Z,17.17
2017-11-09T05:00:31.834Z,16.95
2017-11-09T05:03:00.157Z,18.53
2017-11-09T05:05:27.745Z,16.83
2017-11-09T05:07:55.293Z,20.62
2017-11-09T05:10:22.885Z,15.95
2017-11-09T05:12:50.439Z,19.60
2017-11-09T05:15:18.041Z,19.83
2017-11-09T05:17:45.611Z,18.70
2017-11-09T05:20:13.193Z,16.95
2017-11-09T05:22:40.738Z,17.20
2017-11-09T05:25:08.321Z,18.05
2017-11-09T05:27:35.870Z,19.40
2017-11-09T05:30:03.463Z,17.60
2017-11-09T05:32:31.010Z,20.23
2017-11-09T05:34:58.605Z,16.90
2017-11-09T05:37:26.917Z,17.65
2017-11-09T05:39:54.498Z,16.92
2017-11-09T05:42:22.046Z,17.20
2017-11-09T05:44:49.630Z,18.20
2017-11-09T05:47:17.174Z,18.20
2017-11-09T05:49:44.761Z,18.23
2017-11-09T05:52:12.304Z,16.03
2017-11-09T05:54:39.888Z,18.65
2017-11-09T05:57:07.443Z,19.98
2017-11-09T05:59:35.061Z,17.20
2017-11-09T06:02:02.605Z,19.60
2017-11-09T06:04:30.146Z,15.70
2017-11-09T06:06:58.502Z,17.87
2017-11-09T06:09:26.094Z,17.98
2017-11-09T06:11:53.691Z,17.23
2017-11-09T06:14:21.282Z,18.12
2017-11-09T06:16:48.824Z,17.52
2017-11-09T06:19:16.422Z,19.30
2017-11-09T06:21:44.737Z,17.73
2017-11-09T06:24:12.328Z,20.12
2017-11-09T06:26:39.869Z,14.93
2017-11-09T06:29:07.461Z,15.52
2017-11-09T06:31:35.000Z,15.52
2017-11-09T06:34:02.589Z,16.30
2017-11-09T06:36:30.129Z,16.37
2017-11-09T06:38:57.713Z,17.48
2017-11-09T06:41:25.253Z,15.10
2017-11-09T06:43:52.852Z,17.67
2017-11-09T06:46:20.407Z,17.00
2017-11-09T06:48:48.757Z,16.73
2017-11-09T06:51:16.302Z,17.00
2017-11-09T06:53:43.894Z,17.85
2017-11-09T06:56:12.365Z,21.60
2017-11-09T06:58:39.948Z,20.27
2017-11-09T07:01:08.259Z,22.62
2017-11-09T07:03:35.840Z,19.17
2017-11-09T07:06:03.388Z,19.98
2017-11-09T07:08:30.977Z,19.50
2017-11-09T07:10:58.525Z,26.48
2017-11-09T07:13:26.117Z,23.12
2017-11-09T07:15:54.430Z,19.30
2017-11-09T07:18:22.018Z,18.50
2017-11-09T07:20:49.574Z,20.08
2017-11-09T07:23:17.176Z,21.45
2017-11-09T07:25:45.495Z,19.33
2017-11-09T07:28:13.164Z,22.37
2017-11-09T07:30:40.717Z,20.17
2017-11-09T07:33:08.315Z,20.48
2017-11-09T07:35:35.863Z,18.83
2017-11-09T07:38:03.416Z,22.45
2017-11-09T07:40:31.017Z,21.12
2017-11-09T07:42:59.322Z,22.60
2017-11-09T07:45:26.871Z,25.08
2017-11-09T07:47:54.471Z,21.33
2017-11-09T07:50:22.022Z,20.50
2017-11-09T07:52:49.570Z,22.85
2017-11-09T07:55:17.163Z,25.73
2017-11-09T07:57:44.718Z,22.23
2017-11-09T08:00:12.311Z,21.58
2017-11-09T08:02:40.632Z,27.50
2017-11-09T08:05:08.177Z,29.02
2017-11-09T08:07:35.767Z,36.35
2017-11-09T08:10:03.320Z,27.48
2017-11-09T08:12:31.041Z,22.17
2017-11-09T08:14:58.593Z,26.58
2017-11-09T08:17:26.946Z,23.90
2017-11-09T08:19:54.498Z,22.30
2017-11-09T08:22:22.050Z,21.73
2017-11-09T08:24:51.206Z,22.00
2017-11-09T08:27:20.015Z,20.12
2017-11-09T08:29:50.423Z,19.70
2017-11-09T08:32:20.819Z,19.40
2017-11-09T08:34:49.171Z,22.87
2017-11-09T08:37:16.712Z,22.07
2017-11-09T08:39:44.294Z,21.87
2017-11-09T08:42:11.875Z,27.35
2017-11-09T08:44:39.419Z,21.85
2017-11-09T08:47:07.002Z,26.63
2017-11-09T08:49:35.353Z,21.87
2017-11-09T08:52:02.929Z,25.00
2017-11-09T08:54:30.508Z,23.05
2017-11-09T08:56:58.859Z,20.40
2017-11-09T08:59:26.407Z,22.92
2017-11-09T09:01:53.999Z,23.55
2017-11-09T09:04:22.309Z,23.33
2017-11-09T09:06:49.853Z,17.83
2017-11-09T09:09:17.434Z,17.55
2017-11-09T09:11:45.013Z,15.48
2017-11-09T09:14:12.560Z,18.40
2017-11-09T09:16:40.166Z,20.80
2017-11-09T09:19:08.489Z,18.50
2017-11-09T09:21:50.964Z,20.50
2017-11-09T09:24:34.156Z,20.77
2017-11-09T09:27:16.619Z,21.70
2017-11-09T09:29:48.737Z,20.23
2017-11-09T09:32:16.281Z,19.70
2017-11-09T09:34:55.462Z,20.42
2017-11-09T09:37:25.987Z,20.70
2017-11-09T09:39:55.944Z,19.08
2017-11-09T09:42:23.486Z,15.70
2017-11-09T09:44:51.078Z,18.50
2017-11-09T09:47:18.625Z,17.85
2017-11-09T09:49:46.169Z,21.60
2017-11-09T09:52:13.774Z,17.83
2017-11-09T09:54:41.320Z,17.67
2017-11-09T09:57:08.876Z,21.30
2017-11-09T09:59:36.454Z,16.20
2017-11-09T10:02:04.042Z,17.23
2017-11-09T10:04:31.617Z,16.33
2017-11-09T10:07:00.034Z,16.67
2017-11-09T10:09:27.622Z,16.97
2017-11-09T10:11:55.960Z,15.30
2017-11-09T10:14:23.541Z,16.10
2017-11-09T10:16:51.081Z,18.10
2017-11-09T10:19:18.669Z,16.35
2017-11-09T10:21:46.246Z,13.87
2017-11-09T10:24:13.798Z,18.00
2017-11-09T10:26:41.377Z,12.73
2017-11-09T10:29:08.923Z,13.97
2017-11-09T10:31:36.534Z,13.80
2017-11-09T10:34:04.081Z,14.00
2017-11-09T10:36:31.640Z,16.52
2017-11-09T10:38:59.226Z,17.13
2017-11-09T10:41:26.806Z,15.27
2017-11-09T10:43:54.346Z,12.63
2017-11-09T10:46:21.883Z,18.63
2017-11-09T10:48:49.461Z,15.60
2017-11-09T10:51:17.006Z,14.63
2017-11-09T10:53:44.594Z,13.07
2017-11-09T10:56:12.174Z,13.80
2017-11-09T10:58:39.726Z,13.90
2017-11-09T11:01:07.322Z,13.63
2017-11-09T11:03:35.681Z,9.67
2017-11-09T11:06:03.237Z,12.70
2017-11-09T11:08:30.821Z,12.73
2017-11-09T11:10:59.162Z,13.00
2017-11-09T11:13:26.709Z,13.97
2017-11-09T11:15:54.286Z,15.97
2017-11-09T11:18:21.830Z,11.60
2017-11-09T11:20:49.415Z,17.80
2017-11-09T11:23:16.960Z,12.27
2017-11-09T11:25:44.542Z,11.90
2017-11-09T11:28:12.089Z,16.07
2017-11-09T11:30:40.422Z,13.80
2017-11-09T11:33:07.999Z,12.80
2017-11-09T11:35:35.569Z,12.60
2017-11-09T11:38:03.146Z,11.40
2017-11-09T11:40:30.685Z,11.47
2017-11-09T11:42:58.273Z,10.70
2017-11-09T11:45:25.810Z,15.63
2017-11-09T11:48:03.054Z,12.17
2017-11-09T11:50:31.363Z,23.97
2017-11-09T11:52:58.909Z,12.67
2017-11-09T11:55:26.503Z,13.23
2017-11-09T11:57:54.046Z,13.57
2017-11-09T12:00:21.583Z,11.60
2017-11-09T12:02:49.159Z,14.20
2017-11-09T12:05:16.709Z,14.10
2017-11-09T12:07:44.305Z,13.10
2017-11-09T12:10:11.849Z,13.53
2017-11-09T12:12:39.388Z,14.10
2017-11-09T12:15:06.978Z,11.93
2017-11-09T12:17:34.520Z,14.20
2017-11-09T12:20:02.063Z,12.73
2017-11-09T12:22:32.298Z,12.10
2017-11-09T12:24:59.842Z,13.17
2017-11-09T12:27:27.384Z,12.63
2017-11-09T12:29:55.734Z,13.17
2017-11-09T12:32:23.278Z,15.27
2017-11-09T12:34:50.895Z,13.60
2017-11-09T12:37:19.210Z,14.43
2017-11-09T12:39:46.760Z,15.27
2017-11-09T12:42:14.365Z,13.57
2017-11-09T12:44:41.907Z,16.37
2017-11-09T12:47:09.451Z,17.47
2017-11-09T12:49:37.046Z,16.10
2017-11-09T12:52:04.585Z,16.37
2017-11-09T12:54:32.178Z,16.17
2017-11-09T12:57:00.481Z,14.77
2017-11-09T12:59:28.021Z,16.90
2017-11-09T13:01:56.383Z,17.30
2017-11-09T13:04:23.926Z,16.30
2017-11-09T13:06:52.232Z,16.70
2017-11-09T13:09:20.582Z,15.63
2017-11-09T13:11:48.126Z,18.40
2017-11-09T13:14:15.723Z,15.93
2017-11-09T13:16:44.078Z,15.90
2017-11-09T13:19:11.620Z,14.00
2017-11-09T13:21:39.214Z,17.53
2017-11-09T13:24:06.761Z,14.37
2017-11-09T13:26:34.314Z,17.30
2017-11-09T13:29:01.894Z,16.43
2017-11-09T13:31:29.457Z,18.57
2017-11-09T13:33:57.041Z,17.43
2017-11-09T13:36:24.587Z,13.40
2017-11-09T13:38:52.939Z,15.77
2017-11-09T13:41:20.481Z,15.47
2017-11-09T13:43:48.062Z,16.70
2017-11-09T13:46:15.610Z,17.60
2017-11-09T13:48:43.193Z,16.00
2017-11-09T13:51:11.547Z,17.07
2017-11-09T13:53:39.090Z,16.20
2017-11-09T13:56:06.670Z,17.00
2017-11-09T13:58:34.248Z,15.53
2017-11-09T14:01:01.789Z,16.53
2017-11-09T14:03:29.377Z,16.50
2017-11-09T14:05:57.690Z,19.80
2017-11-09T14:08:25.278Z,21.60
2017-11-09T14:10:52.925Z,17.53
2017-11-09T14:13:20.471Z,16.80
2017-11-09T14:15:48.068Z,20.10
2017-11-09T14:18:15.614Z,16.33
2017-11-09T14:20:43.167Z,17.30
2017-11-09T14:23:10.743Z,18.70
2017-11-09T14:25:38.290Z,24.80
2017-11-09T14:28:05.880Z,17.50
2017-11-09T14:30:33.427Z,16.83
2017-11-09T14:33:01.029Z,16.90
2017-11-09T14:35:29.336Z,16.17
2017-11-09T14:37:56.875Z,16.80
2017-11-09T14:40:24.456Z,15.40
2017-11-09T14:42:51.992Z,19.63
2017-11-09T14:45:19.588Z,20.57
2017-11-09T14:47:47.135Z,17.87
2017-11-09T14:50:14.717Z,26.10
2017-11-09T14:52:42.302Z,20.10
2017-11-09T14:55:09.848Z,18.43
2017-11-09T14:57:37.430Z,27.40
2017-11-09T15:00:05.746Z,18.40
2017-11-09T15:02:33.334Z,15.20
2017-11-09T15:05:00.873Z,18.20
2017-11-09T15:07:28.409Z,18.80
2017-11-09T15:09:55.987Z,15.40
2017-11-09T15:12:23.530Z,14.60
2017-11-09T15:14:51.114Z,18.80
2017-11-09T15:17:18.659Z,16.07
2017-11-09T15:19:46.246Z,15.50
2017-11-09T15:22:13.796Z,26.20
2017-11-09T15:24:47.209Z,24.53
2017-11-09T15:27:14.752Z,28.63
2017-11-09T15:29:42.354Z,34.17
2017-11-09T15:32:10.706Z,17.80
2017-11-09T15:34:38.254Z,23.53
2017-11-09T15:37:05.843Z,23.20
2017-11-09T15:39:33.393Z,23.20
2017-11-09T15:42:00.939Z,40.73
2017-11-09T15:44:28.520Z,46.87
2017-11-09T15:46:56.075Z,32.00
2017-11-09T15:49:23.653Z,19.27
2017-11-09T15:51:51.241Z,48.97
2017-11-09T15:54:18.791Z,98.30
2017-11-09T15:56:47.095Z,31.37
2017-11-09T15:59:14.677Z,27.27
2017-11-09T16:01:42.213Z,25.43
2017-11-09T16:04:09.802Z,22.80
2017-11-09T16:06:38.350Z,23.70
2017-11-09T16:09:05.951Z,22.90
2017-11-09T16:11:33.497Z,22.67
2017-11-09T16:14:01.037Z,17.93
2017-11-09T16:16:28.618Z,19.90
2017-11-09T16:18:56.213Z,20.80
2017-11-09T16:21:23.759Z,25.07
2017-11-09T16:23:54.109Z,24.03
2017-11-09T16:26:22.467Z,21.57
2017-11-09T16:28:50.617Z,22.73
2017-11-09T16:31:18.271Z,20.47
2017-11-09T16:33:45.850Z,24.37
2017-11-09T16:36:13.442Z,19.93
2017-11-09T16:38:41.753Z,22.50
2017-11-09T16:41:09.304Z,17.50
2017-11-09T16:43:36.889Z,20.93
2017-11-09T16:46:04.436Z,22.40
2017-11-09T16:48:31.975Z,19.60
2017-11-09T16:51:00.322Z,19.00
2017-11-09T16:53:27.901Z,23.13
2017-11-09T16:55:56.251Z,19.00
2017-11-09T16:58:23.797Z,19.50
2017-11-09T17:00:51.382Z,29.83
2017-11-09T17:03:20.422Z,24.77
2017-11-09T17:05:47.969Z,25.93
2017-11-09T17:08:15.566Z,23.47
2017-11-09T17:10:43.164Z,21.57
2017-11-09T17:13:11.481Z,21.70
2017-11-09T17:15:39.030Z,22.07
2017-11-09T17:18:12.187Z,19.73
2017-11-09T17:20:39.720Z,19.73
2017-11-09T17:23:07.305Z,24.80
2017-11-09T17:25:35.638Z,24.47
2017-11-09T17:28:03.222Z,22.63
2017-11-09T17:30:30.870Z,19.83
2017-11-09T17:32:58.417Z,23.70
2017-11-09T17:35:25.999Z,20.00
2017-11-09T17:37:53.535Z,22.80
2017-11-09T17:40:23.737Z,18.97
2017-11-09T17:43:05.993Z,26.12
2017-11-09T17:45:33.574Z,28.67
2017-11-09T17:48:01.123Z,23.90
2017-11-09T17:50:28.706Z,24.43
2017-11-09T17:52:57.019Z,24.30
2017-11-09T17:55:24.607Z,25.40
2017-11-09T17:57:52.145Z,23.10
2017-11-09T18:00:19.686Z,22.83
2017-11-09T18:02:47.279Z,23.93
2017-11-09T18:05:14.830Z,23.37
2017-11-09T18:07:42.379Z,23.67
2017-11-09T18:10:09.971Z,27.97
2017-11-09T18:12:37.513Z,25.03
2017-11-09T18:15:05.065Z,26.90
2017-11-09T18:17:32.636Z,25.80
2017-11-09T18:20:00.175Z,32.63
2017-11-09T18:22:27.767Z,26.63
2017-11-09T18:24:55.317Z,29.30
2017-11-09T18:27:22.911Z,24.00
2017-11-09T18:29:51.225Z,23.03
2017-11-09T18:32:18.822Z,24.77
2017-11-09T18:34:46.361Z,24.57
2017-11-09T18:37:13.947Z,25.80
2017-11-09T18:39:41.539Z,25.97
2017-11-09T18:42:09.857Z,26.33
2017-11-09T18:44:37.447Z,23.92
2017-11-09T18:47:05.022Z,27.33
2017-11-09T18:49:32.586Z,23.03
2017-11-09T18:52:00.129Z,23.50
2017-11-09T18:54:27.714Z,25.40
2017-11-09T18:56:55.252Z,27.20
2017-11-09T18:59:23.764Z,27.90
2017-11-09T19:01:52.076Z,29.73
2017-11-09T19:04:19.665Z,24.77
2017-11-09T19:06:47.259Z,28.57
2017-11-09T19:09:22.162Z,28.70
2017-11-09T19:11:49.737Z,27.00
2017-11-09T19:14:17.317Z,23.53
2017-11-09T19:16:45.628Z,30.77
2017-11-09T19:19:13.201Z,25.50
2017-11-09T19:21:40.778Z,31.17
2017-11-09T19:24:08.370Z,27.37
2017-11-09T19:26:36.681Z,24.50
2017-11-09T19:29:04.228Z,28.80
2017-11-09T19:31:31.832Z,29.73
2017-11-09T19:33:59.374Z,27.30
2017-11-09T19:36:26.917Z,26.93
2017-11-09T19:38:54.492Z,25.87
2017-11-09T19:41:22.155Z,26.90
2017-11-09T19:43:49.729Z,25.30
2017-11-09T19:46:17.318Z,32.90
2017-11-09T19:48:45.794Z,22.97
2017-11-09T19:51:13.341Z,28.43
2017-11-09T19:53:40.897Z,28.43
2017-11-09T19:56:08.474Z,26.17
2017-11-09T19:58:36.078Z,29.03
2017-11-09T20:01:03.627Z,26.50
2017-11-09T20:03:31.174Z,29.30
2017-11-09T20:05:59.526Z,26.87
2017-11-09T20:08:27.063Z,31.93
2017-11-09T20:10:54.605Z,26.90
2017-11-09T20:13:22.187Z,26.80
2017-11-09T20:15:49.781Z,27.40
2017-11-09T20:18:18.133Z,23.90
2017-11-09T20:20:45.678Z,25.13
2017-11-09T20:23:13.247Z,27.00
2017-11-09T20:25:40.833Z,30.33
2017-11-09T20:28:08.382Z,23.50
2017-11-09T20:30:35.927Z,27.40
2017-11-09T20:33:03.520Z,25.45
2017-11-09T20:35:31.063Z,26.80
2017-11-09T20:38:00.422Z,24.47
2017-11-09T20:40:27.979Z,26.20
2017-11-09T20:42:55.522Z,25.97
2017-11-09T20:45:24.751Z,32.87
2017-11-09T20:47:55.178Z,31.20
2017-11-09T20:50:22.751Z,30.20
2017-11-09T20:52:50.347Z,26.90
2017-11-09T20:55:18.694Z,25.40
2017-11-09T20:57:46.249Z,25.23
2017-11-09T21:00:13.837Z,35.00
2017-11-09T21:02:41.382Z,27.77
2017-11-09T21:05:08.936Z,28.38
2017-11-09T21:07:36.509Z,26.67
2017-11-09T21:10:04.479Z,30.37
2017-11-09T21:12:32.119Z,25.37
2017-11-09T21:14:59.688Z,26.17
2017-11-09T21:17:27.275Z,24.17
2017-11-09T21:19:55.638Z,25.17
2017-11-09T21:22:23.217Z,29.30
2017-11-09T21:24:56.268Z,31.60
2017-11-09T21:27:23.859Z,27.35
2017-11-09T21:30:08.172Z,26.27
2017-11-09T21:32:35.761Z,28.90
2017-11-09T21:35:03.313Z,28.40
2017-11-09T21:37:34.421Z,27.43
2017-11-09T21:40:01.969Z,24.12
2017-11-09T21:42:31.668Z,27.00
2017-11-09T21:44:59.981Z,29.30
2017-11-09T21:47:27.523Z,26.93
2017-11-09T21:52:35.713Z,25.87
2017-11-09T21:55:04.035Z,30.42
2017-11-09T21:57:35.286Z,26.90
2017-11-09T22:00:12.863Z,30.30
2017-11-09T22:02:41.905Z,29.90
2017-11-09T22:05:09.450Z,26.13
2017-11-09T22:07:37.003Z,35.50
2017-11-09T22:10:09.058Z,27.13
2017-11-09T22:12:37.562Z,26.77
2017-11-09T22:15:05.145Z,25.90
2017-11-09T22:17:33.501Z,22.50
2017-11-09T22:20:01.041Z,24.43
2017-11-09T22:22:30.862Z,25.53
2017-11-09T22:24:58.410Z,26.37
2017-11-09T22:27:26.009Z,31.30
2017-11-09T22:29:53.557Z,25.70
2017-11-09T22:32:21.100Z,22.70
2017-11-09T22:34:48.833Z,25.83
2017-11-09T22:37:16.386Z,24.37
2017-11-09T22:39:43.975Z,27.70
2017-11-09T22:42:11.522Z,26.40
2017-11-09T22:44:39.215Z,24.53
2017-11-09T22:47:10.263Z,35.30
2017-11-09T22:49:37.845Z,28.40
2017-11-09T22:52:05.386Z,37.43
2017-11-09T22:54:32.971Z,26.80
2017-11-09T22:57:01.288Z,25.17
2017-11-09T22:59:28.874Z,29.67
2017-11-09T23:01:56.411Z,32.67
2017-11-09T23:04:24.012Z,23.90
2017-11-09T23:06:51.564Z,57.13
2017-11-09T23:09:19.149Z,55.10
2017-11-09T23:11:47.467Z,52.08
2017-11-09T23:14:15.045Z,30.77
2017-11-09T23:16:42.591Z,26.75
2017-11-09T23:19:10.171Z,22.50
2017-11-09T23:21:37.718Z,28.30
2017-11-09T23:24:05.306Z,28.30
2017-11-09T23:26:32.901Z,66.18
2017-11-09T23:29:00.458Z,56.33
2017-11-09T23:31:28.048Z,33.63
2017-11-09T23:33:55.600Z,35.95
2017-11-09T23:36:23.194Z,41.65
2017-11-09T23:38:50.742Z,37.45
2017-11-09T23:41:18.333Z,36.63
2017-11-09T23:43:45.878Z,39.27
2017-11-09T23:46:13.470Z,98.23
2017-11-09T23:48:41.785Z,67.97
2017-11-09T23:51:09.381Z,50.37
2017-11-09T23:53:36.930Z,53.85
2017-11-09T23:56:04.523Z,61.35
2017-11-09T23:58:32.834Z,41.67
